»·PEaware :: PAA576 KABQ-KLAS

PAA576 :: KABQ-KLAS

FLIGHT INFORMATION

Flight Status: Arrived
Operator:
PanAm
More flights by this operator :: More flights under this callsign
Pilot: Anonymous 8274 (8274)
Aircraft: BOEING 727-200
(B722)
More flights by this aircraft type
Origin: KABQ Albuquerque Intl Sunport
United States
Destination: KLAS McCarran Intl
United States
More flights between these airports :: More routes between these airports
Route: +LARGO3 GUP J96 DRK KADDY2
File this flight plan on PilotEdge
Remarks:
Altitude:
(Current/Filed)
28,000ft
Speed:
(Current/Filed)
470kts
Departed: 20-Sep-18 05:40 PM
Arrived: 20-Sep-18 06:51 PM
Distance/Time
Traveled:
421nm/1:11
Distance/Time
To Go:
Arrived

Flight Plot

Page will automatically refresh every two minutes.

Flight plan parsing failed; only flown route is shown


Map Options




Map Legend


Flown Route
Filed Route
Departure Airport
Arrival Airport
Navaid (VOR, NDB)
Fix

Horizontal Profiles

Position Reports

Time Latitude Longitude Heading Altitude Ground
Speed
20-Sep-18 17:16 35.047959 -106.618161 174 5321ft 0kts
20-Sep-18 17:17 35.047959 -106.618161 174 5321ft 0kts
20-Sep-18 17:18 35.047959 -106.618161 174 5321ft 0kts
20-Sep-18 17:19 35.047959 -106.618161 174 5320ft 0kts
20-Sep-18 17:20 35.047959 -106.618161 174 5320ft 0kts
20-Sep-18 17:21 35.047959 -106.618161 174 5320ft 0kts
20-Sep-18 17:22 35.047959 -106.618161 174 5320ft 0kts
20-Sep-18 17:23 35.047960 -106.618161 174 5320ft 0kts
20-Sep-18 17:24 35.048433 -106.617855 270 5320ft 0kts
20-Sep-18 17:25 35.048425 -106.617760 274 5320ft 0kts
20-Sep-18 17:26 35.048425 -106.617760 274 5320ft 0kts
20-Sep-18 17:27 35.048425 -106.617760 274 5320ft 0kts
20-Sep-18 17:28 35.048425 -106.617760 274 5320ft 0kts
20-Sep-18 17:29 35.048425 -106.617760 274 5320ft 0kts
20-Sep-18 17:30 35.048329 -106.619301 237 5320ft 7kts
20-Sep-18 17:31 35.047367 -106.619575 179 5320ft 0kts
20-Sep-18 17:32 35.045779 -106.619472 144 5320ft 15kts
20-Sep-18 17:33 35.045813 -106.612261 88 5320ft 23kts
20-Sep-18 17:34 35.045765 -106.606933 89 5320ft 0kts
20-Sep-18 17:35 35.045762 -106.605056 89 5320ft 17kts
20-Sep-18 17:36 35.045850 -106.596574 89 5320ft 28kts
20-Sep-18 17:37 35.045765 -106.583944 90 5320ft 38kts
20-Sep-18 17:38 35.045229 -106.575772 159 5320ft 0kts
20-Sep-18 17:39 35.045229 -106.575772 159 5320ft 0kts
20-Sep-18 17:40 35.045229 -106.575772 159 5320ft 0kts
20-Sep-18 17:41 35.044754 -106.575708 179 5320ft 9kts
20-Sep-18 17:42 35.044123 -106.583338 270 5321ft 94kts
20-Sep-18 17:43 35.045376 -106.637285 286 6362ft 178kts
20-Sep-18 17:44 35.062276 -106.700222 274 7762ft 215kts
20-Sep-18 17:45 35.058291 -106.783482 267 9182ft 281kts
20-Sep-18 17:46 35.056393 -106.885147 279 11303ft 320kts
20-Sep-18 17:47 35.081402 -106.994480 284 13690ft 342kts
20-Sep-18 17:48 35.106164 -107.106792 284 16128ft 353kts
20-Sep-18 17:49 35.132299 -107.223517 285 18328ft 362kts
20-Sep-18 17:50 35.158571 -107.343249 285 20122ft 375kts
20-Sep-18 17:51 35.186519 -107.465383 285 20208ft 368kts
20-Sep-18 17:52 35.212134 -107.589491 283 21606ft 382kts
20-Sep-18 17:53 35.238952 -107.716319 283 22891ft 394kts
20-Sep-18 17:54 35.267047 -107.847644 283 24054ft 406kts
20-Sep-18 17:55 35.295914 -107.981823 283 25223ft 413kts
20-Sep-18 17:56 35.325752 -108.118097 283 26276ft 420kts
20-Sep-18 17:57 35.356549 -108.256478 283 27242ft 426kts
20-Sep-18 17:58 35.380985 -108.397811 278 28092ft 430kts
20-Sep-18 17:59 35.403833 -108.546712 278 28216ft 454kts
20-Sep-18 18:00 35.429508 -108.698987 281 28216ft 477kts
20-Sep-18 18:01 35.461201 -108.859913 281 28214ft 497kts
20-Sep-18 18:02 35.494118 -109.026722 281 28213ft 513kts
20-Sep-18 18:03 35.493335 -109.197319 241 28211ft 510kts
20-Sep-18 18:04 35.394659 -109.320432 220 28212ft 513kts
20-Sep-18 18:05 35.287691 -109.437575 220 28210ft 520kts
20-Sep-18 18:06 35.181276 -109.555977 227 28193ft 516kts
20-Sep-18 18:07 35.153835 -109.718661 285 28206ft 521kts
20-Sep-18 18:08 35.209786 -109.880826 291 28122ft 523kts
20-Sep-18 18:09 35.226957 -110.050266 256 28110ft 508kts
20-Sep-18 18:10 35.194291 -110.218307 253 28101ft 508kts
20-Sep-18 18:11 35.158705 -110.384850 253 28098ft 508kts
20-Sep-18 18:12 35.122211 -110.551919 254 28104ft 511kts
20-Sep-18 18:13 35.086133 -110.716253 254 28101ft 515kts
20-Sep-18 18:14 35.048997 -110.885114 254 28102ft 518kts
20-Sep-18 18:15 35.011084 -111.054424 254 28102ft 520kts
20-Sep-18 18:16 34.972772 -111.224448 254 28103ft 522kts
20-Sep-18 18:17 34.938147 -111.396243 256 28103ft 523kts
20-Sep-18 18:18 34.904503 -111.568995 256 28104ft 525kts
20-Sep-18 18:19 34.881928 -111.721332 260 28102ft 525kts
20-Sep-18 18:20 34.849210 -111.893978 252 28102ft 525kts
20-Sep-18 18:21 34.806418 -112.062983 252 28142ft 525kts
20-Sep-18 18:22 34.762656 -112.232361 250 28156ft 526kts
20-Sep-18 18:23 34.714576 -112.398933 250 28154ft 528kts
20-Sep-18 18:24 34.672398 -112.567706 272 28154ft 520kts
20-Sep-18 18:25 34.732247 -112.714101 310 28160ft 505kts
20-Sep-18 18:26 34.823368 -112.842574 304 28142ft 503kts
20-Sep-18 18:27 34.885667 -112.993826 299 28156ft 500kts
20-Sep-18 18:28 34.952574 -113.141659 299 28154ft 500kts
20-Sep-18 18:29 35.016202 -113.291468 296 28047ft 502kts
20-Sep-18 18:30 35.073922 -113.446571 293 28019ft 502kts
20-Sep-18 18:31 35.120520 -113.588643 293 27811ft 413kts
20-Sep-18 18:32 35.163647 -113.709582 298 25902ft 398kts
20-Sep-18 18:33 35.215937 -113.825047 299 24022ft 379kts
20-Sep-18 18:34 35.266722 -113.936171 304 24017ft 373kts
20-Sep-18 18:35 35.356540 -113.994922 342 23948ft 377kts
20-Sep-18 18:36 35.453047 -114.043191 331 21810ft 374kts
20-Sep-18 18:37 35.543450 -114.101614 331 20068ft 366kts
20-Sep-18 18:38 35.621845 -114.172759 298 18262ft 354kts
20-Sep-18 18:39 35.670229 -114.275251 302 15864ft 344kts
20-Sep-18 18:40 35.719269 -114.371682 302 12839ft 319kts
20-Sep-18 18:41 35.783113 -114.430725 336 11973ft 294kts
20-Sep-18 18:42 35.856082 -114.467577 336 11969ft 276kts
20-Sep-18 18:43 35.925935 -114.502750 333 11971ft 268kts
20-Sep-18 18:44 35.962317 -114.577794 291 11076ft 266kts
20-Sep-18 18:45 35.990867 -114.659433 291 9318ft 272kts
20-Sep-18 18:46 36.020713 -114.745129 291 8071ft 273kts
20-Sep-18 18:47 36.048833 -114.830558 291 6055ft 267kts
20-Sep-18 18:48 36.071859 -114.905424 283 5163ft 225kts
20-Sep-18 18:49 36.073803 -114.975727 271 4598ft 157kts
20-Sep-18 18:50 36.073919 -115.026854 270 3722ft 151kts
20-Sep-18 18:51 36.073756 -115.078312 268 2925ft 149kts
20-Sep-18 18:52 36.073656 -115.128784 269 2150ft 146kts
20-Sep-18 18:53 36.074392 -115.154510 298 2123ft 26kts
20-Sep-18 18:54 36.078015 -115.156186 90 2123ft 18kts
20-Sep-18 18:55 36.077930 -115.149683 94 2123ft 27kts
20-Sep-18 18:56 36.077511 -115.140507 90 2123ft 24kts
20-Sep-18 18:57 36.079762 -115.139521 354 2123ft 3kts
20-Sep-18 18:58 36.079806 -115.139526 354 2123ft 0kts
20-Sep-18 18:59 36.079806 -115.139526 354 2123ft 0kts
20-Sep-18 19:00 36.079806 -115.139526 354 2123ft 0kts

Navigation Log

Ident Type
Flight plan parsing failed, navigation log unavailable